createdAt,value
2019-04-11T00:00:42.401Z,8.93
2019-04-11T00:03:13.339Z,9.18
2019-04-11T00:05:43.687Z,10.43
2019-04-11T00:08:14.201Z,13.70
2019-04-11T00:10:45.052Z,11.55
2019-04-11T00:13:21.593Z,10.60
2019-04-11T00:15:48.575Z,12.80
2019-04-11T00:18:19.092Z,8.18
2019-04-11T00:20:50.532Z,14.07
2019-04-11T00:23:21.793Z,11.50
2019-04-11T00:25:52.325Z,9.10
2019-04-11T00:28:23.639Z,7.63
2019-04-11T00:30:54.668Z,10.35
2019-04-11T00:33:25.110Z,12.13
2019-04-11T00:35:55.657Z,9.18
2019-04-11T00:38:26.049Z,8.60
2019-04-11T00:40:57.492Z,14.70
2019-04-11T00:43:35.867Z,13.13
2019-04-11T00:46:01.815Z,11.90
2019-04-11T00:48:33.507Z,8.35
2019-04-11T00:51:03.851Z,10.55
2019-04-11T00:53:34.121Z,14.60
2019-04-11T00:56:04.381Z,9.57
2019-04-11T00:58:34.643Z,7.60
2019-04-11T01:01:04.995Z,11.43
2019-04-11T01:03:38.018Z,14.60
2019-04-11T01:06:08.562Z,12.15
2019-04-11T01:08:39.923Z,13.62
2019-04-11T01:11:11.896Z,11.35
2019-04-11T01:13:50.340Z,8.15
2019-04-11T01:16:33.356Z,10.03
2019-04-11T01:19:04.628Z,10.93
2019-04-11T01:21:34.919Z,10.10
2019-04-11T01:24:05.179Z,8.83
2019-04-11T01:26:35.433Z,11.20
2019-04-11T01:29:05.700Z,11.83
2019-04-11T01:31:38.309Z,10.27
2019-04-11T01:34:10.631Z,12.20
2019-04-11T01:36:41.219Z,12.75
2019-04-11T01:39:29.435Z,10.43
2019-04-11T01:42:00.746Z,10.35
2019-04-11T01:44:31.206Z,12.88
2019-04-11T01:47:02.344Z,10.90
2019-04-11T01:49:34.437Z,11.95
2019-04-11T01:52:05.051Z,12.82
2019-04-11T01:54:35.528Z,10.23
2019-04-11T01:57:05.876Z,11.83
2019-04-11T02:02:11.854Z,11.88
2019-04-11T02:05:02.906Z,9.90
2019-04-11T02:07:34.297Z,11.15
2019-04-11T02:12:35.283Z,12.63
2019-04-11T02:17:37.023Z,10.58
2019-04-11T02:20:07.557Z,12.20
2019-04-11T02:22:40.418Z,12.63
2019-04-11T02:25:28.295Z,9.85
2019-04-11T02:28:00.174Z,10.53
2019-04-11T02:30:31.350Z,13.65
2019-04-11T02:36:09.553Z,11.78
2019-04-11T02:38:41.086Z,19.75
2019-04-11T02:41:12.498Z,11.88
2019-04-11T02:43:44.527Z,12.78
2019-04-11T02:46:25.914Z,12.28
2019-04-11T02:48:47.367Z,18.48
2019-04-11T02:51:18.254Z,12.03
2019-04-11T02:53:49.556Z,12.07
2019-04-11T02:56:21.302Z,12.37
2019-04-11T02:58:52.291Z,11.85
2019-04-11T03:01:24.112Z,11.68
2019-04-11T03:03:56.541Z,11.73
2019-04-11T03:06:27.925Z,11.70
2019-04-11T03:08:59.336Z,14.00
2019-04-11T03:11:30.386Z,13.88
2019-04-11T03:16:42.682Z,12.63
2019-04-11T03:19:17.995Z,12.43
2019-04-11T03:21:39.104Z,13.85
2019-04-11T03:24:10.778Z,13.15
2019-04-11T03:26:41.288Z,13.85
2019-04-11T03:29:12.850Z,13.03
2019-04-11T03:32:24.690Z,17.92
2019-04-11T03:37:18.962Z,13.88
2019-04-11T03:39:37.798Z,11.60
2019-04-11T03:42:03.950Z,12.30
2019-04-11T03:44:28.978Z,17.57
2019-04-11T03:47:11.242Z,12.85
2019-04-11T03:49:38.914Z,14.38
2019-04-11T03:52:01.185Z,12.65
2019-04-11T03:54:34.224Z,13.60
2019-04-11T03:57:05.506Z,14.58
2019-04-11T03:59:38.440Z,13.58
2019-04-11T04:02:10.104Z,15.15
2019-04-11T04:04:41.531Z,17.60
2019-04-11T04:07:14.119Z,14.23
2019-04-11T04:09:45.708Z,17.85
2019-04-11T04:12:16.184Z,15.00
2019-04-11T04:14:54.488Z,10.65
2019-04-11T04:17:27.792Z,14.55
2019-04-11T04:20:16.660Z,14.95
2019-04-11T04:22:57.619Z,15.03
2019-04-11T04:25:28.573Z,13.80
2019-04-11T04:27:59.552Z,16.07
2019-04-11T04:30:30.096Z,18.95
2019-04-11T04:33:00.763Z,17.40
2019-04-11T04:35:31.769Z,14.35
2019-04-11T04:38:05.189Z,17.77
2019-04-11T04:40:50.949Z,18.55
2019-04-11T04:43:09.673Z,16.35
2019-04-11T04:45:59.751Z,16.17
2019-04-11T04:48:14.147Z,21.55
2019-04-11T04:50:44.854Z,19.02
2019-04-11T04:53:16.071Z,18.40
2019-04-11T04:55:47.888Z,20.52
2019-04-11T04:58:20.800Z,18.70
2019-04-11T05:00:53.237Z,15.50
2019-04-11T05:03:24.394Z,20.30
2019-04-11T05:05:55.260Z,14.78
2019-04-11T05:08:27.180Z,20.12
2019-04-11T05:10:57.928Z,15.48
2019-04-11T05:13:30.045Z,19.60
2019-04-11T05:16:11.021Z,16.73
2019-04-11T05:18:32.277Z,18.98
2019-04-11T05:21:03.602Z,16.20
2019-04-11T05:23:33.890Z,18.03
2019-04-11T05:26:04.186Z,11.70
2019-04-11T05:28:35.322Z,15.53
2019-04-11T05:31:06.078Z,14.45
2019-04-11T05:33:37.001Z,16.23
2019-04-11T05:36:08.171Z,16.73
2019-04-11T05:38:38.497Z,23.20
2019-04-11T05:41:12.123Z,13.57
2019-04-11T05:43:41.683Z,11.95
2019-04-11T05:46:26.277Z,11.78
2019-04-11T05:48:45.750Z,14.28
2019-04-11T05:51:21.242Z,12.75
2019-04-11T05:53:50.077Z,13.83
2019-04-11T05:56:21.765Z,12.85
2019-04-11T05:58:53.747Z,12.75
2019-04-11T06:01:29.090Z,14.13
2019-04-11T06:04:03.783Z,10.72
2019-04-11T06:06:40.235Z,14.70
2019-04-11T06:09:16.806Z,13.18
2019-04-11T06:11:58.120Z,12.20
2019-04-11T06:17:07.331Z,11.38
2019-04-11T06:19:42.369Z,16.62
2019-04-11T06:22:12.852Z,11.88
2019-04-11T06:24:50.504Z,11.07
2019-04-11T06:27:22.356Z,12.95
2019-04-11T06:29:59.784Z,13.70
2019-04-11T06:32:38.294Z,14.68
2019-04-11T06:35:19.945Z,12.15
2019-04-11T06:38:08.173Z,11.65
2019-04-11T06:40:48.112Z,14.95
2019-04-11T06:43:20.372Z,13.45
2019-04-11T06:46:11.478Z,12.95
2019-04-11T06:48:58.198Z,10.10
2019-04-11T06:51:30.296Z,10.20
2019-04-11T06:54:21.125Z,13.03
2019-04-11T06:56:52.331Z,13.58
2019-04-11T06:59:24.338Z,12.03
2019-04-11T07:02:07.551Z,12.15
2019-04-11T07:04:38.542Z,12.53
2019-04-11T07:07:11.102Z,12.40
2019-04-11T07:09:49.218Z,10.45
2019-04-11T07:12:30.788Z,11.40
2019-04-11T07:15:06.546Z,12.25
2019-04-11T07:17:55.055Z,9.90
2019-04-11T07:20:43.592Z,10.90
2019-04-11T07:23:32.932Z,11.75
2019-04-11T07:26:05.162Z,12.53
2019-04-11T07:28:43.874Z,13.58
2019-04-11T07:31:16.053Z,10.23
2019-04-11T07:34:03.946Z,12.50
2019-04-11T07:36:53.565Z,9.98
2019-04-11T07:39:25.897Z,11.45
2019-04-11T07:42:15.747Z,11.95
2019-04-11T07:44:57.615Z,9.55
2019-04-11T07:47:29.570Z,9.35
2019-04-11T07:50:02.321Z,9.28
2019-04-11T07:52:34.550Z,11.12
2019-04-11T07:55:06.684Z,7.75
2019-04-11T07:57:38.725Z,7.90
2019-04-11T08:00:17.173Z,7.65
2019-04-11T08:03:01.971Z,8.15
2019-04-11T08:05:46.689Z,9.20
2019-04-11T08:08:36.794Z,7.30
2019-04-11T08:11:17.866Z,7.62
2019-04-11T08:14:04.799Z,7.72
2019-04-11T08:16:53.174Z,10.90
2019-04-11T08:19:40.774Z,8.18
2019-04-11T08:22:32.836Z,9.25
2019-04-11T08:25:05.623Z,9.28
2019-04-11T08:28:00.733Z,8.05
2019-04-11T08:30:29.283Z,7.55
2019-04-11T08:33:07.389Z,6.97
2019-04-11T08:35:40.159Z,6.72
2019-04-11T08:38:16.784Z,7.30
2019-04-11T08:40:58.810Z,7.47
2019-04-11T08:43:31.223Z,8.53
2019-04-11T08:46:04.603Z,6.72
2019-04-11T08:48:39.416Z,6.92
2019-04-11T08:51:11.549Z,7.72
2019-04-11T08:53:44.872Z,7.47
2019-04-11T08:56:23.083Z,7.42
2019-04-11T08:59:24.914Z,7.20
2019-04-11T09:01:56.030Z,5.53
2019-04-11T09:04:46.487Z,9.20
2019-04-11T09:07:27.655Z,5.83
2019-04-11T09:10:15.689Z,6.70
2019-04-11T09:12:51.002Z,6.45
2019-04-11T09:15:26.645Z,7.12
2019-04-11T09:18:04.176Z,6.80
2019-04-11T09:20:47.888Z,8.08
2019-04-11T09:23:27.884Z,8.25
2019-04-11T09:28:37.706Z,8.10
2019-04-11T09:31:27.477Z,8.65
2019-04-11T09:34:15.964Z,7.45
2019-04-11T09:36:47.786Z,7.70
2019-04-11T09:39:37.448Z,9.95
2019-04-11T09:42:10.491Z,9.85
2019-04-11T09:44:49.314Z,7.35
2019-04-11T09:47:30.466Z,6.62
2019-04-11T09:50:14.760Z,9.33
2019-04-11T09:52:49.665Z,8.70
2019-04-11T09:55:37.943Z,8.33
2019-04-11T09:58:13.563Z,6.50
2019-04-11T10:01:01.798Z,8.30
2019-04-11T10:03:34.542Z,8.68
2019-04-11T10:06:07.263Z,7.72
2019-04-11T10:08:39.573Z,7.17
2019-04-11T10:11:28.277Z,7.30
2019-04-11T10:14:01.534Z,7.35
2019-04-11T10:16:36.551Z,9.35
2019-04-11T10:19:24.343Z,6.25
2019-04-11T10:22:13.081Z,9.00
2019-04-11T10:24:46.249Z,6.60
2019-04-11T10:27:26.985Z,7.22
2019-04-11T10:30:15.228Z,7.43
2019-04-11T10:32:52.984Z,8.35
2019-04-11T10:35:50.338Z,9.90
2019-04-11T10:38:22.498Z,9.05
2019-04-11T10:41:00.872Z,7.50
2019-04-11T10:43:32.790Z,8.58
2019-04-11T10:46:13.328Z,7.92
2019-04-11T10:48:46.993Z,7.27
2019-04-11T10:51:29.673Z,9.55
2019-04-11T10:54:02.838Z,8.80
2019-04-11T10:56:34.655Z,7.42
2019-04-11T10:59:05.169Z,7.12
2019-04-11T11:01:37.222Z,7.78
2019-04-11T11:04:27.646Z,9.80
2019-04-11T11:07:13.702Z,8.53
2019-04-11T11:10:03.662Z,7.37
2019-04-11T11:12:35.509Z,6.87
2019-04-11T11:15:13.601Z,9.78
2019-04-11T11:18:31.933Z,9.53
2019-04-11T11:20:55.126Z,7.37
2019-04-11T11:26:41.216Z,7.95
2019-04-11T11:29:26.527Z,7.45
2019-04-11T11:31:58.658Z,7.55
2019-04-11T11:34:30.593Z,8.00
2019-04-11T11:37:02.672Z,8.73
2019-04-11T11:39:35.576Z,8.00
2019-04-11T11:42:24.095Z,8.25
2019-04-11T11:44:57.193Z,12.88
2019-04-11T11:47:45.972Z,7.35
2019-04-11T11:50:20.097Z,9.05
2019-04-11T11:53:10.305Z,8.45
2019-04-11T11:55:41.268Z,9.00
2019-04-11T11:58:18.124Z,10.00
2019-04-11T12:00:52.259Z,9.15
2019-04-11T12:03:35.234Z,7.97
2019-04-11T12:06:07.304Z,9.03
2019-04-11T12:08:51.512Z,8.53
2019-04-11T12:11:24.099Z,8.65
2019-04-11T12:13:56.098Z,7.95
2019-04-11T12:16:39.844Z,11.33
2019-04-11T12:19:16.017Z,8.65
2019-04-11T12:21:46.339Z,7.92
2019-04-11T12:24:18.168Z,7.65
2019-04-11T12:26:56.063Z,9.40
2019-04-11T12:29:30.226Z,8.63
2019-04-11T12:32:01.500Z,8.30
2019-04-11T12:34:51.431Z,7.78
2019-04-11T12:37:29.541Z,8.05
2019-04-11T12:40:09.572Z,9.18
2019-04-11T12:42:47.237Z,8.50
2019-04-11T12:45:24.839Z,11.22
2019-04-11T12:47:55.117Z,8.20
2019-04-11T12:50:29.564Z,8.50
2019-04-11T12:53:04.331Z,17.60
2019-04-11T12:55:54.207Z,11.10
2019-04-11T12:58:26.225Z,8.40
2019-04-11T13:01:03.551Z,10.63
2019-04-11T13:03:44.387Z,12.90
2019-04-11T13:06:35.267Z,7.40
2019-04-11T13:09:07.011Z,8.10
2019-04-11T13:11:39.098Z,9.05
2019-04-11T13:14:17.351Z,8.18
2019-04-11T13:16:49.310Z,7.35
2019-04-11T13:19:37.285Z,9.13
2019-04-11T13:22:09.130Z,8.05
2019-04-11T13:24:56.237Z,7.72
2019-04-11T13:27:27.703Z,7.37
2019-04-11T13:30:05.587Z,7.45
2019-04-11T13:32:37.651Z,9.98
2019-04-11T13:35:28.827Z,9.25
2019-04-11T13:38:12.999Z,6.92
2019-04-11T13:40:44.860Z,8.55
2019-04-11T13:43:25.691Z,9.10
2019-04-11T13:46:12.379Z,8.45
2019-04-11T13:49:00.531Z,7.22
2019-04-11T13:51:32.442Z,8.80
2019-04-11T13:54:20.670Z,7.55
2019-04-11T13:57:09.074Z,8.15
2019-04-11T13:59:43.803Z,9.53
2019-04-11T14:02:15.923Z,7.58
2019-04-11T14:04:47.756Z,9.70
2019-04-11T14:07:23.680Z,8.83
2019-04-11T14:10:11.886Z,7.83
2019-04-11T14:12:42.455Z,7.45
2019-04-11T14:15:22.419Z,10.88
2019-04-11T14:17:54.331Z,8.80
2019-04-11T14:20:35.339Z,8.65
2019-04-11T14:23:13.772Z,12.18
2019-04-11T14:25:50.899Z,7.95
2019-04-11T14:28:22.882Z,8.05
2019-04-11T14:31:06.538Z,7.75
2019-04-11T14:33:38.371Z,9.03
2019-04-11T14:36:12.955Z,8.85
2019-04-11T14:38:47.571Z,9.60
2019-04-11T14:41:24.264Z,9.80
2019-04-11T14:44:02.135Z,10.23
2019-04-11T14:46:50.257Z,10.88
2019-04-11T14:49:20.437Z,13.22
2019-04-11T14:52:01.318Z,10.20
2019-04-11T14:54:33.220Z,9.28
2019-04-11T14:57:31.218Z,8.80
2019-04-11T15:00:08.628Z,7.90
2019-04-11T15:02:48.011Z,7.05
2019-04-11T15:05:31.710Z,7.67
2019-04-11T15:08:01.959Z,8.60
2019-04-11T15:10:33.815Z,9.03
2019-04-11T15:13:26.292Z,10.18
2019-04-11T15:16:01.300Z,12.43
2019-04-11T15:18:32.939Z,12.43
2019-04-11T15:21:06.784Z,10.72
2019-04-11T15:23:38.353Z,8.43
2019-04-11T15:26:16.265Z,8.65
2019-04-11T15:28:54.326Z,11.08
2019-04-11T15:31:39.235Z,8.35
2019-04-11T15:34:21.919Z,9.58
2019-04-11T15:37:05.531Z,9.30
2019-04-11T15:39:53.495Z,13.60
2019-04-11T15:42:34.504Z,10.28
2019-04-11T15:45:13.449Z,8.23
2019-04-11T15:47:46.739Z,12.37
2019-04-11T15:50:35.711Z,8.65
2019-04-11T15:53:06.721Z,13.22
2019-04-11T15:55:55.702Z,8.50
2019-04-11T15:58:33.574Z,9.93
2019-04-11T16:01:20.647Z,11.00
2019-04-11T16:03:52.499Z,10.70
2019-04-11T16:06:26.896Z,9.25
2019-04-11T16:09:01.825Z,13.93
2019-04-11T16:11:56.067Z,9.25
2019-04-11T16:14:26.373Z,6.90
2019-04-11T16:19:30.250Z,8.10
2019-04-11T16:22:06.088Z,10.72
2019-04-11T16:24:38.047Z,7.30
2019-04-11T16:27:26.090Z,7.60
2019-04-11T16:30:07.924Z,10.13
2019-04-11T16:32:40.347Z,10.30
2019-04-11T16:35:27.136Z,9.43
2019-04-11T16:38:11.136Z,9.40
2019-04-11T16:40:45.530Z,11.18
2019-04-11T16:43:15.735Z,8.98
2019-04-11T16:46:05.842Z,9.55
2019-04-11T16:48:36.182Z,7.47
2019-04-11T16:51:06.467Z,8.20
2019-04-11T16:53:36.737Z,9.30
2019-04-11T16:56:06.938Z,8.20
2019-04-11T16:58:37.250Z,12.28
2019-04-11T17:01:10.199Z,8.28
2019-04-11T17:03:40.378Z,9.35
2019-04-11T17:06:12.216Z,8.88
2019-04-11T17:08:48.144Z,9.45
2019-04-11T17:11:19.688Z,9.95
2019-04-11T17:13:50.269Z,8.58
2019-04-11T17:16:20.731Z,9.73
2019-04-11T17:18:50.985Z,7.57
2019-04-11T17:21:23.246Z,11.05
2019-04-11T17:23:53.093Z,8.80
2019-04-11T17:26:23.933Z,10.53
2019-04-11T17:28:54.802Z,13.03
2019-04-11T17:31:25.947Z,9.40
2019-04-11T17:34:01.435Z,10.15
2019-04-11T17:36:30.718Z,8.98
2019-04-11T17:39:07.017Z,10.18
2019-04-11T17:41:41.748Z,11.68
2019-04-11T17:44:30.730Z,9.33
2019-04-11T17:47:00.987Z,8.38
2019-04-11T17:49:31.255Z,10.63
2019-04-11T17:52:05.046Z,10.20
2019-04-11T17:54:35.896Z,10.75
2019-04-11T17:57:06.170Z,9.78
2019-04-11T17:59:36.525Z,7.37
2019-04-11T18:02:10.370Z,9.50
2019-04-11T18:04:44.003Z,8.78
2019-04-11T18:07:12.522Z,9.55
2019-04-11T18:09:42.722Z,9.27
2019-04-11T18:12:12.923Z,9.18
2019-04-11T18:14:43.109Z,10.65
2019-04-11T18:17:13.323Z,8.78
2019-04-11T18:19:43.536Z,8.60
2019-04-11T18:22:14.362Z,9.23
2019-04-11T18:24:44.910Z,9.48
2019-04-11T18:27:15.134Z,11.63
2019-04-11T18:29:45.323Z,10.43
2019-04-11T18:32:15.532Z,10.88
2019-04-11T18:34:45.794Z,14.43
2019-04-11T18:37:16.026Z,13.18
2019-04-11T18:39:46.225Z,20.45
2019-04-11T18:42:22.511Z,15.80
2019-04-11T18:44:52.765Z,14.53
2019-04-11T18:47:23.028Z,16.97
2019-04-11T18:49:53.341Z,18.55
2019-04-11T18:52:25.424Z,18.15
2019-04-11T18:54:56.234Z,24.98
2019-04-11T18:57:26.580Z,23.57
2019-04-11T19:00:14.918Z,48.45
2019-04-11T19:02:45.211Z,37.45
2019-04-11T19:05:15.449Z,31.90
2019-04-11T19:07:45.677Z,25.77
2019-04-11T19:10:16.312Z,23.07
2019-04-11T19:13:03.892Z,21.77
2019-04-11T19:15:34.085Z,13.40
2019-04-11T19:18:06.607Z,13.53
2019-04-11T19:20:36.547Z,16.95
2019-04-11T19:23:07.957Z,16.27
2019-04-11T19:25:44.057Z,10.43
2019-04-11T19:28:14.739Z,12.30
2019-04-11T19:30:45.062Z,14.35
2019-04-11T19:33:15.283Z,9.18
2019-04-11T19:35:45.507Z,9.50
2019-04-11T19:38:17.366Z,10.78
2019-04-11T19:40:47.583Z,10.45
2019-04-11T19:43:19.698Z,10.93
2019-04-11T19:45:50.537Z,10.32
2019-04-11T19:48:22.670Z,8.93
2019-04-11T19:50:52.774Z,13.25
2019-04-11T19:53:23.022Z,14.18
2019-04-11T19:55:58.662Z,12.43
2019-04-11T19:58:30.559Z,11.30
2019-04-11T20:01:03.357Z,10.88
2019-04-11T20:03:33.638Z,13.62
2019-04-11T20:06:06.069Z,16.62
2019-04-11T20:08:37.938Z,14.90
2019-04-11T20:11:08.122Z,21.10
2019-04-11T20:13:38.327Z,14.50
2019-04-11T20:16:12.181Z,15.43
2019-04-11T20:18:50.216Z,16.65
2019-04-11T20:21:12.425Z,15.08
2019-04-11T20:23:42.730Z,11.95
2019-04-11T20:26:12.967Z,12.30
2019-04-11T20:28:50.872Z,12.68
2019-04-11T20:31:21.921Z,11.80
2019-04-11T20:33:52.161Z,11.45
2019-04-11T20:36:32.912Z,11.93
2019-04-11T20:38:54.584Z,16.55
2019-04-11T20:41:24.845Z,13.13
2019-04-11T20:43:59.154Z,14.00
2019-04-11T20:46:29.859Z,12.43
2019-04-11T20:49:00.376Z,11.80
2019-04-11T20:51:30.571Z,11.73
2019-04-11T20:54:00.774Z,11.00
2019-04-11T20:56:30.977Z,11.95
2019-04-11T20:59:10.349Z,10.70
2019-04-11T21:01:40.362Z,13.68
2019-04-11T21:04:13.734Z,13.75
2019-04-11T21:06:43.990Z,15.10
2019-04-11T21:09:14.378Z,13.13
2019-04-11T21:11:44.546Z,11.60
2019-04-11T21:14:14.786Z,9.90
2019-04-11T21:16:44.976Z,11.93
2019-04-11T21:19:15.177Z,10.80
2019-04-11T21:21:45.377Z,12.58
2019-04-11T21:24:15.577Z,7.97
2019-04-11T21:26:45.762Z,10.90
2019-04-11T21:29:15.964Z,8.50
2019-04-11T21:31:46.138Z,8.63
2019-04-11T21:34:16.404Z,8.03
2019-04-11T21:36:46.583Z,8.28
2019-04-11T21:39:16.779Z,9.70
2019-04-11T21:41:46.969Z,11.63
2019-04-11T21:44:23.874Z,9.43
2019-04-11T21:46:54.143Z,10.38
2019-04-11T21:49:24.332Z,9.63
2019-04-11T21:51:54.526Z,8.55
2019-04-11T21:54:24.726Z,10.85
2019-04-11T21:56:54.946Z,8.85
2019-04-11T21:59:28.314Z,11.33
2019-04-11T22:01:58.599Z,9.78
2019-04-11T22:07:01.500Z,8.70
2019-04-11T22:09:35.566Z,7.70
2019-04-11T22:12:08.239Z,8.23
2019-04-11T22:14:42.037Z,8.58
2019-04-11T22:17:15.184Z,11.10
2019-04-11T22:19:45.885Z,10.13
2019-04-11T22:22:15.068Z,11.90
2019-04-11T22:24:45.269Z,8.90
2019-04-11T22:27:15.528Z,9.20
2019-04-11T22:29:45.751Z,9.25
2019-04-11T22:32:15.909Z,8.40
2019-04-11T22:34:47.026Z,9.88
2019-04-11T22:37:17.200Z,10.00
2019-04-11T22:39:47.409Z,10.15
2019-04-11T22:42:17.603Z,7.55
2019-04-11T22:44:47.782Z,11.38
2019-04-11T22:47:17.959Z,10.28
2019-04-11T22:49:48.248Z,11.30
2019-04-11T22:52:18.426Z,9.60
2019-04-11T22:54:48.842Z,9.50
2019-04-11T22:57:19.036Z,11.15
2019-04-11T22:59:49.313Z,9.35
2019-04-11T23:02:21.201Z,12.43
2019-04-11T23:04:51.563Z,11.03
2019-04-11T23:07:21.741Z,9.08
2019-04-11T23:09:52.016Z,8.43
2019-04-11T23:12:22.172Z,8.30
2019-04-11T23:14:52.577Z,10.00
2019-04-11T23:17:22.856Z,19.67
2019-04-11T23:19:53.114Z,10.28
2019-04-11T23:22:23.310Z,14.55
2019-04-11T23:24:53.633Z,10.55
2019-04-11T23:27:23.886Z,9.50
2019-04-11T23:29:54.065Z,8.10
2019-04-11T23:32:39.058Z,8.55
2019-04-11T23:35:09.234Z,12.00
2019-04-11T23:37:51.228Z,8.87
2019-04-11T23:40:23.211Z,9.05
2019-04-11T23:42:53.390Z,9.65
2019-04-11T23:45:25.262Z,8.70
2019-04-11T23:47:55.505Z,13.50
2019-04-11T23:50:25.982Z,10.65
2019-04-11T23:52:57.884Z,9.78
2019-04-11T23:55:30.728Z,10.43
2019-04-11T23:58:01.720Z,9.10
